sensor_id;sensor_type;location;lat;lon;timestamp;P1;durP1;ratioP1;P2;durP2;ratioP2
46415;SDS011;32620;51.704;7.822;2023-05-15T00:02:04;16.10;;;11.85;;
46415;SDS011;32620;51.704;7.822;2023-05-15T00:04:30;13.50;;;11.27;;
46415;SDS011;32620;51.704;7.822;2023-05-15T00:06:56;15.40;;;12.93;;
46415;SDS011;32620;51.704;7.822;2023-05-15T00:09:21;19.27;;;11.55;;
46415;SDS011;32620;51.704;7.822;2023-05-15T00:11:47;15.57;;;12.43;;
46415;SDS011;32620;51.704;7.822;2023-05-15T00:14:12;14.05;;;12.45;;
46415;SDS011;32620;51.704;7.822;2023-05-15T00:16:38;12.45;;;11.15;;
46415;SDS011;32620;51.704;7.822;2023-05-15T00:19:03;13.50;;;11.88;;
46415;SDS011;32620;51.704;7.822;2023-05-15T00:21:29;13.60;;;11.65;;
46415;SDS011;32620;51.704;7.822;2023-05-15T00:23:55;14.88;;;12.80;;
46415;SDS011;32620;51.704;7.822;2023-05-15T00:26:22;13.10;;;11.73;;
46415;SDS011;32620;51.704;7.822;2023-05-15T00:28:48;12.50;;;11.20;;
46415;SDS011;32620;51.704;7.822;2023-05-15T00:31:13;16.45;;;12.45;;
46415;SDS011;32620;51.704;7.822;2023-05-15T00:33:39;14.80;;;11.85;;
46415;SDS011;32620;51.704;7.822;2023-05-15T00:36:05;14.15;;;12.43;;
46415;SDS011;32620;51.704;7.822;2023-05-15T00:38:31;13.80;;;12.00;;
46415;SDS011;32620;51.704;7.822;2023-05-15T00:40:58;13.05;;;11.07;;
46415;SDS011;32620;51.704;7.822;2023-05-15T00:43:24;13.68;;;11.57;;
46415;SDS011;32620;51.704;7.822;2023-05-15T00:45:50;13.75;;;12.18;;
46415;SDS011;32620;51.704;7.822;2023-05-15T00:48:17;14.32;;;11.77;;
46415;SDS011;32620;51.704;7.822;2023-05-15T00:50:46;15.35;;;12.68;;
46415;SDS011;32620;51.704;7.822;2023-05-15T00:53:14;16.40;;;13.68;;
46415;SDS011;32620;51.704;7.822;2023-05-15T00:55:39;19.52;;;14.05;;
46415;SDS011;32620;51.704;7.822;2023-05-15T00:58:06;15.88;;;13.13;;
46415;SDS011;32620;51.704;7.822;2023-05-15T01:00:34;20.88;;;15.55;;
46415;SDS011;32620;51.704;7.822;2023-05-15T01:03:00;18.83;;;16.02;;
46415;SDS011;32620;51.704;7.822;2023-05-15T01:05:25;22.20;;;15.80;;
46415;SDS011;32620;51.704;7.822;2023-05-15T01:07:55;19.33;;;15.77;;
46415;SDS011;32620;51.704;7.822;2023-05-15T01:10:30;21.75;;;15.82;;
46415;SDS011;32620;51.704;7.822;2023-05-15T01:12:59;18.17;;;14.48;;
46415;SDS011;32620;51.704;7.822;2023-05-15T01:15:26;18.23;;;14.98;;
46415;SDS011;32620;51.704;7.822;2023-05-15T01:17:52;17.67;;;14.95;;
46415;SDS011;32620;51.704;7.822;2023-05-15T01:20:17;20.60;;;16.55;;
46415;SDS011;32620;51.704;7.822;2023-05-15T01:22:50;22.00;;;15.90;;
46415;SDS011;32620;51.704;7.822;2023-05-15T01:25:36;20.70;;;14.70;;
46415;SDS011;32620;51.704;7.822;2023-05-15T01:28:13;22.50;;;16.25;;
46415;SDS011;32620;51.704;7.822;2023-05-15T01:30:46;19.38;;;16.40;;
46415;SDS011;32620;51.704;7.822;2023-05-15T01:33:17;23.05;;;15.13;;
46415;SDS011;32620;51.704;7.822;2023-05-15T01:35:48;17.95;;;14.43;;
46415;SDS011;32620;51.704;7.822;2023-05-15T01:38:29;22.27;;;15.65;;
46415;SDS011;32620;51.704;7.822;2023-05-15T01:43:51;21.10;;;15.90;;
46415;SDS011;32620;51.704;7.822;2023-05-15T01:46:20;19.38;;;16.75;;
46415;SDS011;32620;51.704;7.822;2023-05-15T01:48:47;21.33;;;16.35;;
46415;SDS011;32620;51.704;7.822;2023-05-15T01:51:15;20.80;;;16.10;;
46415;SDS011;32620;51.704;7.822;2023-05-15T01:53:42;22.30;;;16.85;;
46415;SDS011;32620;51.704;7.822;2023-05-15T01:56:10;22.40;;;17.77;;
46415;SDS011;32620;51.704;7.822;2023-05-15T01:58:37;20.92;;;17.30;;
46415;SDS011;32620;51.704;7.822;2023-05-15T02:01:05;20.88;;;17.10;;
46415;SDS011;32620;51.704;7.822;2023-05-15T02:03:31;22.05;;;18.38;;
46415;SDS011;32620;51.704;7.822;2023-05-15T02:05:58;25.50;;;19.33;;
46415;SDS011;32620;51.704;7.822;2023-05-15T02:08:25;23.10;;;18.83;;
46415;SDS011;32620;51.704;7.822;2023-05-15T02:10:53;27.23;;;19.92;;
46415;SDS011;32620;51.704;7.822;2023-05-15T02:13:20;23.50;;;18.33;;
46415;SDS011;32620;51.704;7.822;2023-05-15T02:15:47;28.08;;;19.23;;
46415;SDS011;32620;51.704;7.822;2023-05-15T02:18:12;27.33;;;20.13;;
46415;SDS011;32620;51.704;7.822;2023-05-15T02:20:38;22.20;;;18.38;;
46415;SDS011;32620;51.704;7.822;2023-05-15T02:23:03;22.63;;;18.63;;
46415;SDS011;32620;51.704;7.822;2023-05-15T02:25:33;22.98;;;18.20;;
46415;SDS011;32620;51.704;7.822;2023-05-15T02:28:16;24.67;;;17.70;;
46415;SDS011;32620;51.704;7.822;2023-05-15T02:30:56;29.88;;;21.15;;
46415;SDS011;32620;51.704;7.822;2023-05-15T02:36:18;28.73;;;21.60;;
46415;SDS011;32620;51.704;7.822;2023-05-15T02:38:47;24.88;;;20.05;;
46415;SDS011;32620;51.704;7.822;2023-05-15T02:41:15;24.25;;;18.90;;
46415;SDS011;32620;51.704;7.822;2023-05-15T02:43:42;27.77;;;20.30;;
46415;SDS011;32620;51.704;7.822;2023-05-15T02:46:08;28.35;;;21.88;;
46415;SDS011;32620;51.704;7.822;2023-05-15T02:48:36;29.40;;;21.45;;
46415;SDS011;32620;51.704;7.822;2023-05-15T02:51:05;24.33;;;19.73;;
46415;SDS011;32620;51.704;7.822;2023-05-15T02:53:31;28.92;;;19.70;;
46415;SDS011;32620;51.704;7.822;2023-05-15T02:55:57;26.27;;;19.17;;
46415;SDS011;32620;51.704;7.822;2023-05-15T02:58:23;23.33;;;18.13;;
46415;SDS011;32620;51.704;7.822;2023-05-15T03:00:49;23.52;;;18.60;;
46415;SDS011;32620;51.704;7.822;2023-05-15T03:03:14;23.13;;;18.10;;
46415;SDS011;32620;51.704;7.822;2023-05-15T03:05:40;20.63;;;17.20;;
46415;SDS011;32620;51.704;7.822;2023-05-15T03:08:05;25.20;;;19.85;;
46415;SDS011;32620;51.704;7.822;2023-05-15T03:10:31;28.60;;;23.13;;
46415;SDS011;32620;51.704;7.822;2023-05-15T03:12:56;39.10;;;28.05;;
46415;SDS011;32620;51.704;7.822;2023-05-15T03:15:22;36.45;;;26.75;;
46415;SDS011;32620;51.704;7.822;2023-05-15T03:17:48;32.95;;;26.05;;
46415;SDS011;32620;51.704;7.822;2023-05-15T03:20:13;36.90;;;26.58;;
46415;SDS011;32620;51.704;7.822;2023-05-15T03:22:39;34.47;;;24.52;;
46415;SDS011;32620;51.704;7.822;2023-05-15T03:25:05;33.05;;;24.63;;
46415;SDS011;32620;51.704;7.822;2023-05-15T03:27:33;29.08;;;22.60;;
46415;SDS011;32620;51.704;7.822;2023-05-15T03:29:58;29.52;;;22.35;;
46415;SDS011;32620;51.704;7.822;2023-05-15T03:32:24;30.23;;;22.70;;
46415;SDS011;32620;51.704;7.822;2023-05-15T03:34:49;30.45;;;21.42;;
46415;SDS011;32620;51.704;7.822;2023-05-15T03:37:15;27.33;;;21.05;;
46415;SDS011;32620;51.704;7.822;2023-05-15T03:39:40;27.52;;;20.85;;
46415;SDS011;32620;51.704;7.822;2023-05-15T03:42:06;27.92;;;21.83;;
46415;SDS011;32620;51.704;7.822;2023-05-15T03:44:32;31.05;;;24.08;;
46415;SDS011;32620;51.704;7.822;2023-05-15T03:46:57;29.30;;;21.67;;
46415;SDS011;32620;51.704;7.822;2023-05-15T03:49:23;31.77;;;23.45;;
46415;SDS011;32620;51.704;7.822;2023-05-15T03:51:48;26.45;;;20.92;;
46415;SDS011;32620;51.704;7.822;2023-05-15T03:54:14;31.92;;;24.67;;
46415;SDS011;32620;51.704;7.822;2023-05-15T03:56:39;33.13;;;24.33;;
46415;SDS011;32620;51.704;7.822;2023-05-15T03:59:05;30.48;;;23.08;;
46415;SDS011;32620;51.704;7.822;2023-05-15T04:01:31;32.00;;;23.27;;
46415;SDS011;32620;51.704;7.822;2023-05-15T04:03:57;30.45;;;22.73;;
46415;SDS011;32620;51.704;7.822;2023-05-15T04:06:24;33.17;;;24.35;;
46415;SDS011;32620;51.704;7.822;2023-05-15T04:08:50;41.95;;;27.90;;
46415;SDS011;32620;51.704;7.822;2023-05-15T04:11:15;39.88;;;28.02;;
46415;SDS011;32620;51.704;7.822;2023-05-15T04:13:41;46.85;;;31.10;;
46415;SDS011;32620;51.704;7.822;2023-05-15T04:16:07;45.60;;;31.75;;
46415;SDS011;32620;51.704;7.822;2023-05-15T04:18:33;42.55;;;29.77;;
46415;SDS011;32620;51.704;7.822;2023-05-15T04:20:59;44.90;;;30.52;;
46415;SDS011;32620;51.704;7.822;2023-05-15T04:23:25;39.17;;;28.60;;
46415;SDS011;32620;51.704;7.822;2023-05-15T04:25:51;44.72;;;30.70;;
46415;SDS011;32620;51.704;7.822;2023-05-15T04:28:17;42.63;;;31.13;;
46415;SDS011;32620;51.704;7.822;2023-05-15T04:30:45;36.40;;;28.83;;
46415;SDS011;32620;51.704;7.822;2023-05-15T04:33:11;35.63;;;27.88;;
46415;SDS011;32620;51.704;7.822;2023-05-15T04:35:37;36.22;;;25.95;;
46415;SDS011;32620;51.704;7.822;2023-05-15T04:38:03;34.33;;;26.52;;
46415;SDS011;32620;51.704;7.822;2023-05-15T04:40:29;34.83;;;26.20;;
46415;SDS011;32620;51.704;7.822;2023-05-15T04:42:55;29.85;;;23.23;;
46415;SDS011;32620;51.704;7.822;2023-05-15T04:45:21;27.17;;;21.55;;
46415;SDS011;32620;51.704;7.822;2023-05-15T04:47:48;25.55;;;18.88;;
46415;SDS011;32620;51.704;7.822;2023-05-15T04:50:14;20.17;;;17.90;;
46415;SDS011;32620;51.704;7.822;2023-05-15T04:52:40;23.08;;;18.35;;
46415;SDS011;32620;51.704;7.822;2023-05-15T04:55:07;25.60;;;19.08;;
46415;SDS011;32620;51.704;7.822;2023-05-15T04:57:33;32.58;;;20.75;;
46415;SDS011;32620;51.704;7.822;2023-05-15T05:00:02;26.10;;;22.05;;
46415;SDS011;32620;51.704;7.822;2023-05-15T05:02:34;27.40;;;21.80;;
46415;SDS011;32620;51.704;7.822;2023-05-15T05:05:02;29.08;;;24.55;;
46415;SDS011;32620;51.704;7.822;2023-05-15T05:07:28;30.98;;;26.63;;
46415;SDS011;32620;51.704;7.822;2023-05-15T05:09:54;33.97;;;26.80;;
46415;SDS011;32620;51.704;7.822;2023-05-15T05:12:20;35.83;;;28.60;;
46415;SDS011;32620;51.704;7.822;2023-05-15T05:14:45;36.25;;;28.83;;
46415;SDS011;32620;51.704;7.822;2023-05-15T05:17:11;40.95;;;28.25;;
46415;SDS011;32620;51.704;7.822;2023-05-15T05:19:37;32.67;;;27.35;;
46415;SDS011;32620;51.704;7.822;2023-05-15T05:22:03;36.70;;;28.50;;
46415;SDS011;32620;51.704;7.822;2023-05-15T05:24:30;38.15;;;27.63;;
46415;SDS011;32620;51.704;7.822;2023-05-15T05:26:56;36.35;;;27.92;;
46415;SDS011;32620;51.704;7.822;2023-05-15T05:29:22;35.83;;;27.05;;
46415;SDS011;32620;51.704;7.822;2023-05-15T05:31:48;33.38;;;23.48;;
46415;SDS011;32620;51.704;7.822;2023-05-15T05:34:14;28.50;;;22.80;;
46415;SDS011;32620;51.704;7.822;2023-05-15T05:36:40;25.42;;;21.17;;
46415;SDS011;32620;51.704;7.822;2023-05-15T05:39:05;27.55;;;21.75;;
46415;SDS011;32620;51.704;7.822;2023-05-15T05:41:31;28.27;;;20.92;;
46415;SDS011;32620;51.704;7.822;2023-05-15T05:43:56;26.08;;;20.08;;
46415;SDS011;32620;51.704;7.822;2023-05-15T05:46:22;28.15;;;21.42;;
46415;SDS011;32620;51.704;7.822;2023-05-15T05:48:48;32.25;;;21.52;;
46415;SDS011;32620;51.704;7.822;2023-05-15T05:51:13;26.27;;;22.80;;
46415;SDS011;32620;51.704;7.822;2023-05-15T05:53:39;25.95;;;22.58;;
46415;SDS011;32620;51.704;7.822;2023-05-15T05:56:05;27.88;;;24.00;;
46415;SDS011;32620;51.704;7.822;2023-05-15T05:58:31;25.65;;;22.88;;
46415;SDS011;32620;51.704;7.822;2023-05-15T06:00:56;27.60;;;23.08;;
46415;SDS011;32620;51.704;7.822;2023-05-15T06:03:22;34.50;;;28.13;;
46415;SDS011;32620;51.704;7.822;2023-05-15T06:05:48;35.35;;;29.10;;
46415;SDS011;32620;51.704;7.822;2023-05-15T06:08:14;34.38;;;29.65;;
46415;SDS011;32620;51.704;7.822;2023-05-15T06:10:40;40.83;;;32.90;;
46415;SDS011;32620;51.704;7.822;2023-05-15T06:13:06;37.90;;;32.03;;
46415;SDS011;32620;51.704;7.822;2023-05-15T06:15:32;38.80;;;32.05;;
46415;SDS011;32620;51.704;7.822;2023-05-15T06:17:57;44.35;;;34.95;;
46415;SDS011;32620;51.704;7.822;2023-05-15T06:20:23;47.22;;;38.13;;
46415;SDS011;32620;51.704;7.822;2023-05-15T06:22:49;54.00;;;41.88;;
46415;SDS011;32620;51.704;7.822;2023-05-15T06:25:14;56.97;;;42.13;;
46415;SDS011;32620;51.704;7.822;2023-05-15T06:27:40;60.22;;;43.22;;
46415;SDS011;32620;51.704;7.822;2023-05-15T06:30:07;54.20;;;40.72;;
46415;SDS011;32620;51.704;7.822;2023-05-15T06:32:33;53.53;;;41.38;;
46415;SDS011;32620;51.704;7.822;2023-05-15T06:34:59;58.38;;;42.70;;
46415;SDS011;32620;51.704;7.822;2023-05-15T06:37:25;54.47;;;41.92;;
46415;SDS011;32620;51.704;7.822;2023-05-15T06:39:51;60.67;;;43.47;;
46415;SDS011;32620;51.704;7.822;2023-05-15T06:42:17;63.30;;;44.92;;
46415;SDS011;32620;51.704;7.822;2023-05-15T06:44:42;60.80;;;45.13;;
46415;SDS011;32620;51.704;7.822;2023-05-15T06:47:08;63.33;;;44.38;;
46415;SDS011;32620;51.704;7.822;2023-05-15T06:49:33;57.90;;;43.00;;
46415;SDS011;32620;51.704;7.822;2023-05-15T06:51:59;70.60;;;46.30;;
46415;SDS011;32620;51.704;7.822;2023-05-15T06:54:25;69.53;;;46.22;;
46415;SDS011;32620;51.704;7.822;2023-05-15T06:56:50;74.68;;;47.88;;
46415;SDS011;32620;51.704;7.822;2023-05-15T06:59:16;77.65;;;49.20;;
46415;SDS011;32620;51.704;7.822;2023-05-15T07:01:41;77.28;;;50.25;;
46415;SDS011;32620;51.704;7.822;2023-05-15T07:04:09;78.35;;;50.03;;
46415;SDS011;32620;51.704;7.822;2023-05-15T07:06:35;83.32;;;53.28;;
46415;SDS011;32620;51.704;7.822;2023-05-15T07:09:01;91.88;;;54.05;;
46415;SDS011;32620;51.704;7.822;2023-05-15T07:11:30;83.22;;;53.33;;
46415;SDS011;32620;51.704;7.822;2023-05-15T07:13:57;85.32;;;53.70;;
46415;SDS011;32620;51.704;7.822;2023-05-15T07:16:23;83.55;;;52.60;;
46415;SDS011;32620;51.704;7.822;2023-05-15T07:18:48;87.57;;;53.95;;
46415;SDS011;32620;51.704;7.822;2023-05-15T07:21:14;84.05;;;51.80;;
46415;SDS011;32620;51.704;7.822;2023-05-15T07:23:39;85.30;;;53.20;;
46415;SDS011;32620;51.704;7.822;2023-05-15T07:26:05;77.10;;;50.00;;
46415;SDS011;32620;51.704;7.822;2023-05-15T07:28:32;83.93;;;51.50;;
46415;SDS011;32620;51.704;7.822;2023-05-15T07:30:57;81.53;;;52.42;;
46415;SDS011;32620;51.704;7.822;2023-05-15T07:33:23;79.75;;;53.15;;
46415;SDS011;32620;51.704;7.822;2023-05-15T07:35:49;81.03;;;53.00;;
46415;SDS011;32620;51.704;7.822;2023-05-15T07:38:16;83.40;;;51.70;;
46415;SDS011;32620;51.704;7.822;2023-05-15T07:40:42;86.90;;;52.65;;
46415;SDS011;32620;51.704;7.822;2023-05-15T07:43:07;81.90;;;49.72;;
46415;SDS011;32620;51.704;7.822;2023-05-15T07:45:33;84.20;;;50.92;;
46415;SDS011;32620;51.704;7.822;2023-05-15T07:48:11;83.85;;;50.85;;
46415;SDS011;32620;51.704;7.822;2023-05-15T07:50:38;74.88;;;47.83;;
46415;SDS011;32620;51.704;7.822;2023-05-15T07:53:04;78.70;;;50.08;;
46415;SDS011;32620;51.704;7.822;2023-05-15T07:55:30;75.30;;;47.17;;
46415;SDS011;32620;51.704;7.822;2023-05-15T07:57:55;75.05;;;47.45;;
46415;SDS011;32620;51.704;7.822;2023-05-15T08:00:21;73.90;;;48.47;;
46415;SDS011;32620;51.704;7.822;2023-05-15T08:02:46;72.50;;;47.22;;
46415;SDS011;32620;51.704;7.822;2023-05-15T08:05:14;74.32;;;48.75;;
46415;SDS011;32620;51.704;7.822;2023-05-15T08:07:40;73.93;;;49.92;;
46415;SDS011;32620;51.704;7.822;2023-05-15T08:10:06;80.97;;;50.75;;
46415;SDS011;32620;51.704;7.822;2023-05-15T08:12:35;78.25;;;51.25;;
46415;SDS011;32620;51.704;7.822;2023-05-15T08:15:01;75.43;;;50.58;;
46415;SDS011;32620;51.704;7.822;2023-05-15T08:17:27;84.85;;;53.78;;
46415;SDS011;32620;51.704;7.822;2023-05-15T08:19:52;83.82;;;51.08;;
46415;SDS011;32620;51.704;7.822;2023-05-15T08:22:21;83.22;;;52.75;;
46415;SDS011;32620;51.704;7.822;2023-05-15T08:24:46;85.53;;;52.58;;
46415;SDS011;32620;51.704;7.822;2023-05-15T08:27:13;85.90;;;53.60;;
46415;SDS011;32620;51.704;7.822;2023-05-15T08:29:38;90.95;;;55.40;;
46415;SDS011;32620;51.704;7.822;2023-05-15T08:32:05;82.80;;;53.70;;
46415;SDS011;32620;51.704;7.822;2023-05-15T08:34:31;95.93;;;57.03;;
46415;SDS011;32620;51.704;7.822;2023-05-15T08:36:57;90.85;;;56.58;;
46415;SDS011;32620;51.704;7.822;2023-05-15T08:39:23;88.18;;;54.55;;
46415;SDS011;32620;51.704;7.822;2023-05-15T08:41:51;83.72;;;54.13;;
46415;SDS011;32620;51.704;7.822;2023-05-15T08:44:21;79.90;;;50.80;;
46415;SDS011;32620;51.704;7.822;2023-05-15T08:46:48;73.97;;;49.25;;
46415;SDS011;32620;51.704;7.822;2023-05-15T08:49:18;72.30;;;49.58;;
46415;SDS011;32620;51.704;7.822;2023-05-15T08:52:03;69.30;;;47.85;;
46415;SDS011;32620;51.704;7.822;2023-05-15T08:54:29;71.68;;;49.45;;
46415;SDS011;32620;51.704;7.822;2023-05-15T08:56:55;68.18;;;46.42;;
46415;SDS011;32620;51.704;7.822;2023-05-15T08:59:21;66.68;;;45.95;;
46415;SDS011;32620;51.704;7.822;2023-05-15T09:01:47;58.78;;;43.65;;
46415;SDS011;32620;51.704;7.822;2023-05-15T09:04:13;57.95;;;41.22;;
46415;SDS011;32620;51.704;7.822;2023-05-15T09:06:39;52.53;;;37.97;;
46415;SDS011;32620;51.704;7.822;2023-05-15T09:09:10;55.20;;;39.33;;
46415;SDS011;32620;51.704;7.822;2023-05-15T09:11:38;51.90;;;39.40;;
46415;SDS011;32620;51.704;7.822;2023-05-15T09:14:08;52.88;;;39.53;;
46415;SDS011;32620;51.704;7.822;2023-05-15T09:16:34;58.90;;;42.03;;
46415;SDS011;32620;51.704;7.822;2023-05-15T09:18:59;54.97;;;41.35;;
46415;SDS011;32620;51.704;7.822;2023-05-15T09:21:27;52.38;;;40.75;;
46415;SDS011;32620;51.704;7.822;2023-05-15T09:23:54;60.20;;;43.50;;
46415;SDS011;32620;51.704;7.822;2023-05-15T09:26:22;60.25;;;43.92;;
46415;SDS011;32620;51.704;7.822;2023-05-15T09:28:48;63.22;;;43.53;;
46415;SDS011;32620;51.704;7.822;2023-05-15T09:31:14;57.08;;;42.78;;
46415;SDS011;32620;51.704;7.822;2023-05-15T09:33:46;59.25;;;43.42;;
46415;SDS011;32620;51.704;7.822;2023-05-15T09:36:24;62.15;;;45.10;;
46415;SDS011;32620;51.704;7.822;2023-05-15T09:38:51;61.70;;;44.17;;
46415;SDS011;32620;51.704;7.822;2023-05-15T09:41:23;67.45;;;47.30;;
46415;SDS011;32620;51.704;7.822;2023-05-15T09:43:50;59.72;;;43.22;;
46415;SDS011;32620;51.704;7.822;2023-05-15T09:46:16;62.65;;;44.75;;
46415;SDS011;32620;51.704;7.822;2023-05-15T09:48:42;61.72;;;43.13;;
46415;SDS011;32620;51.704;7.822;2023-05-15T09:51:15;60.33;;;43.63;;
46415;SDS011;32620;51.704;7.822;2023-05-15T09:53:46;60.15;;;41.33;;
46415;SDS011;32620;51.704;7.822;2023-05-15T09:56:14;53.95;;;40.50;;
46415;SDS011;32620;51.704;7.822;2023-05-15T09:58:51;51.78;;;38.80;;
46415;SDS011;32620;51.704;7.822;2023-05-15T10:01:18;49.00;;;38.88;;
46415;SDS011;32620;51.704;7.822;2023-05-15T10:03:57;53.47;;;38.97;;
46415;SDS011;32620;51.704;7.822;2023-05-15T10:06:24;52.63;;;39.85;;
46415;SDS011;32620;51.704;7.822;2023-05-15T10:08:51;49.83;;;38.33;;
46415;SDS011;32620;51.704;7.822;2023-05-15T10:11:17;46.45;;;37.97;;
46415;SDS011;32620;51.704;7.822;2023-05-15T10:13:44;48.58;;;37.80;;
46415;SDS011;32620;51.704;7.822;2023-05-15T10:16:10;47.05;;;37.83;;
46415;SDS011;32620;51.704;7.822;2023-05-15T10:18:37;47.25;;;37.92;;
46415;SDS011;32620;51.704;7.822;2023-05-15T10:21:04;45.60;;;36.42;;
46415;SDS011;32620;51.704;7.822;2023-05-15T10:23:33;45.78;;;36.83;;
46415;SDS011;32620;51.704;7.822;2023-05-15T10:26:01;47.25;;;39.25;;
46415;SDS011;32620;51.704;7.822;2023-05-15T10:28:32;46.75;;;38.80;;
46415;SDS011;32620;51.704;7.822;2023-05-15T10:31:00;45.38;;;37.47;;
46415;SDS011;32620;51.704;7.822;2023-05-15T10:33:27;53.50;;;40.10;;
46415;SDS011;32620;51.704;7.822;2023-05-15T10:35:54;49.40;;;38.75;;
46415;SDS011;32620;51.704;7.822;2023-05-15T10:38:22;50.78;;;39.78;;
46415;SDS011;32620;51.704;7.822;2023-05-15T10:40:48;49.05;;;39.20;;
46415;SDS011;32620;51.704;7.822;2023-05-15T10:43:16;45.63;;;38.30;;
46415;SDS011;32620;51.704;7.822;2023-05-15T10:45:44;49.25;;;37.15;;
46415;SDS011;32620;51.704;7.822;2023-05-15T10:48:11;45.75;;;36.08;;
46415;SDS011;32620;51.704;7.822;2023-05-15T10:50:38;44.40;;;35.42;;
46415;SDS011;32620;51.704;7.822;2023-05-15T10:53:04;50.10;;;37.72;;
46415;SDS011;32620;51.704;7.822;2023-05-15T10:55:30;49.17;;;36.45;;
46415;SDS011;32620;51.704;7.822;2023-05-15T10:57:56;48.10;;;36.08;;
46415;SDS011;32620;51.704;7.822;2023-05-15T11:02:51;40.85;;;33.30;;
46415;SDS011;32620;51.704;7.822;2023-05-15T11:05:20;42.35;;;33.60;;
46415;SDS011;32620;51.704;7.822;2023-05-15T11:10:51;43.90;;;34.53;;
46415;SDS011;32620;51.704;7.822;2023-05-15T11:13:18;38.40;;;30.83;;
46415;SDS011;32620;51.704;7.822;2023-05-15T11:15:44;44.10;;;34.03;;
46415;SDS011;32620;51.704;7.822;2023-05-15T11:18:11;38.28;;;31.90;;
46415;SDS011;32620;51.704;7.822;2023-05-15T11:20:38;40.85;;;31.50;;
46415;SDS011;32620;51.704;7.822;2023-05-15T11:23:05;39.95;;;32.25;;
46415;SDS011;32620;51.704;7.822;2023-05-15T11:25:31;36.38;;;30.92;;
46415;SDS011;32620;51.704;7.822;2023-05-15T11:27:59;36.15;;;30.58;;
46415;SDS011;32620;51.704;7.822;2023-05-15T11:30:35;34.97;;;29.60;;
46415;SDS011;32620;51.704;7.822;2023-05-15T11:33:04;37.65;;;29.90;;
46415;SDS011;32620;51.704;7.822;2023-05-15T11:35:33;39.83;;;32.90;;
46415;SDS011;32620;51.704;7.822;2023-05-15T11:38:22;37.28;;;29.65;;
46415;SDS011;32620;51.704;7.822;2023-05-15T11:40:50;35.60;;;29.35;;
46415;SDS011;32620;51.704;7.822;2023-05-15T11:43:21;34.42;;;28.08;;
46415;SDS011;32620;51.704;7.822;2023-05-15T11:46:05;36.03;;;29.35;;
46415;SDS011;32620;51.704;7.822;2023-05-15T11:48:33;38.78;;;28.45;;
46415;SDS011;32620;51.704;7.822;2023-05-15T11:51:03;31.83;;;25.83;;
46415;SDS011;32620;51.704;7.822;2023-05-15T11:53:30;36.10;;;26.45;;
46415;SDS011;32620;51.704;7.822;2023-05-15T11:55:56;35.30;;;28.05;;
46415;SDS011;32620;51.704;7.822;2023-05-15T11:58:23;33.35;;;28.27;;
46415;SDS011;32620;51.704;7.822;2023-05-15T12:00:50;30.98;;;25.77;;
46415;SDS011;32620;51.704;7.822;2023-05-15T12:03:20;36.03;;;29.23;;
46415;SDS011;32620;51.704;7.822;2023-05-15T12:05:48;35.60;;;29.88;;
46415;SDS011;32620;51.704;7.822;2023-05-15T12:08:15;35.70;;;29.27;;
46415;SDS011;32620;51.704;7.822;2023-05-15T12:10:41;34.10;;;28.90;;
46415;SDS011;32620;51.704;7.822;2023-05-15T12:13:08;33.00;;;28.40;;
46415;SDS011;32620;51.704;7.822;2023-05-15T12:15:36;35.85;;;28.83;;
46415;SDS011;32620;51.704;7.822;2023-05-15T12:18:03;41.30;;;29.30;;
46415;SDS011;32620;51.704;7.822;2023-05-15T12:20:31;33.95;;;27.80;;
46415;SDS011;32620;51.704;7.822;2023-05-15T12:22:59;30.35;;;25.02;;
46415;SDS011;32620;51.704;7.822;2023-05-15T12:25:25;31.90;;;23.90;;
46415;SDS011;32620;51.704;7.822;2023-05-15T12:27:51;30.17;;;24.33;;
46415;SDS011;32620;51.704;7.822;2023-05-15T12:30:17;29.75;;;25.70;;
46415;SDS011;32620;51.704;7.822;2023-05-15T12:32:43;32.03;;;25.27;;
46415;SDS011;32620;51.704;7.822;2023-05-15T12:35:09;32.03;;;25.52;;
46415;SDS011;32620;51.704;7.822;2023-05-15T12:37:36;29.05;;;24.63;;
46415;SDS011;32620;51.704;7.822;2023-05-15T12:40:03;30.65;;;23.80;;
46415;SDS011;32620;51.704;7.822;2023-05-15T12:42:38;29.27;;;25.23;;
46415;SDS011;32620;51.704;7.822;2023-05-15T12:45:15;30.45;;;23.48;;
46415;SDS011;32620;51.704;7.822;2023-05-15T12:47:42;29.00;;;23.77;;
46415;SDS011;32620;51.704;7.822;2023-05-15T12:50:18;26.85;;;22.80;;
46415;SDS011;32620;51.704;7.822;2023-05-15T12:52:46;27.63;;;22.17;;
46415;SDS011;32620;51.704;7.822;2023-05-15T12:55:24;27.42;;;20.20;;
46415;SDS011;32620;51.704;7.822;2023-05-15T12:57:54;23.35;;;19.73;;
46415;SDS011;32620;51.704;7.822;2023-05-15T13:00:21;20.92;;;18.00;;
46415;SDS011;32620;51.704;7.822;2023-05-15T13:02:48;19.63;;;15.27;;
46415;SDS011;32620;51.704;7.822;2023-05-15T13:05:16;18.15;;;15.15;;
46415;SDS011;32620;51.704;7.822;2023-05-15T13:07:42;20.20;;;15.27;;
46415;SDS011;32620;51.704;7.822;2023-05-15T13:10:08;16.25;;;14.48;;
46415;SDS011;32620;51.704;7.822;2023-05-15T13:12:35;17.75;;;14.93;;
46415;SDS011;32620;51.704;7.822;2023-05-15T13:15:03;20.30;;;16.75;;
46415;SDS011;32620;51.704;7.822;2023-05-15T13:17:31;23.40;;;17.75;;
46415;SDS011;32620;51.704;7.822;2023-05-15T13:19:58;18.98;;;16.30;;
46415;SDS011;32620;51.704;7.822;2023-05-15T13:22:24;16.58;;;14.63;;
46415;SDS011;32620;51.704;7.822;2023-05-15T13:24:50;17.13;;;13.18;;
46415;SDS011;32620;51.704;7.822;2023-05-15T13:27:17;18.00;;;13.35;;
46415;SDS011;32620;51.704;7.822;2023-05-15T13:29:42;17.08;;;12.45;;
46415;SDS011;32620;51.704;7.822;2023-05-15T13:32:08;15.55;;;12.02;;
46415;SDS011;32620;51.704;7.822;2023-05-15T13:34:33;13.90;;;12.45;;
46415;SDS011;32620;51.704;7.822;2023-05-15T13:36:59;14.38;;;12.50;;
46415;SDS011;32620;51.704;7.822;2023-05-15T13:39:24;12.85;;;11.52;;
46415;SDS011;32620;51.704;7.822;2023-05-15T13:41:50;12.93;;;10.20;;
46415;SDS011;32620;51.704;7.822;2023-05-15T13:44:16;13.80;;;9.45;;
46415;SDS011;32620;51.704;7.822;2023-05-15T13:46:42;11.85;;;9.75;;
46415;SDS011;32620;51.704;7.822;2023-05-15T13:49:07;17.70;;;9.75;;
46415;SDS011;32620;51.704;7.822;2023-05-15T13:51:35;15.88;;;10.68;;
46415;SDS011;32620;51.704;7.822;2023-05-15T13:54:00;13.48;;;10.77;;
46415;SDS011;32620;51.704;7.822;2023-05-15T13:56:26;12.88;;;9.90;;
46415;SDS011;32620;51.704;7.822;2023-05-15T13:58:51;13.18;;;10.02;;
46415;SDS011;32620;51.704;7.822;2023-05-15T14:01:17;12.63;;;8.85;;
46415;SDS011;32620;51.704;7.822;2023-05-15T14:03:42;13.90;;;10.25;;
46415;SDS011;32620;51.704;7.822;2023-05-15T14:06:09;12.55;;;8.52;;
46415;SDS011;32620;51.704;7.822;2023-05-15T14:08:34;13.23;;;9.10;;
46415;SDS011;32620;51.704;7.822;2023-05-15T14:11:00;11.25;;;8.23;;
46415;SDS011;32620;51.704;7.822;2023-05-15T14:13:26;11.63;;;8.40;;
46415;SDS011;32620;51.704;7.822;2023-05-15T14:15:55;11.40;;;8.60;;
46415;SDS011;32620;51.704;7.822;2023-05-15T14:18:21;9.55;;;7.82;;
46415;SDS011;32620;51.704;7.822;2023-05-15T14:20:46;11.30;;;7.82;;
46415;SDS011;32620;51.704;7.822;2023-05-15T14:23:12;10.63;;;7.75;;
46415;SDS011;32620;51.704;7.822;2023-05-15T14:25:39;9.65;;;7.90;;
46415;SDS011;32620;51.704;7.822;2023-05-15T14:28:05;8.50;;;7.60;;
46415;SDS011;32620;51.704;7.822;2023-05-15T14:30:30;10.82;;;7.20;;
46415;SDS011;32620;51.704;7.822;2023-05-15T14:32:56;11.13;;;7.60;;
46415;SDS011;32620;51.704;7.822;2023-05-15T14:35:21;9.18;;;7.47;;